createdAt,value
2018-12-04T00:00:35.765Z,1.17
2018-12-04T00:03:04.561Z,1.10
2018-12-04T00:05:32.755Z,0.87
2018-12-04T00:08:00.350Z,1.27
2018-12-04T00:10:34.911Z,1.10
2018-12-04T00:13:02.481Z,1.23
2018-12-04T00:15:30.110Z,1.20
2018-12-04T00:17:57.693Z,1.40
2018-12-04T00:20:25.286Z,1.30
2018-12-04T00:22:52.886Z,1.20
2018-12-04T00:25:21.148Z,1.00
2018-12-04T00:27:48.796Z,1.20
2018-12-04T00:30:16.457Z,1.03
2018-12-04T00:32:44.129Z,1.30
2018-12-04T00:35:11.899Z,1.27
2018-12-04T00:37:39.484Z,1.30
2018-12-04T00:40:08.889Z,1.30
2018-12-04T00:42:36.517Z,1.07
2018-12-04T00:45:06.182Z,1.83
2018-12-04T00:47:33.730Z,1.73
2018-12-04T00:50:01.344Z,2.00
2018-12-04T00:52:28.869Z,1.67
2018-12-04T00:54:56.414Z,1.33
2018-12-04T00:57:24.019Z,2.00
2018-12-04T00:59:51.659Z,1.13
2018-12-04T01:02:19.367Z,1.73
2018-12-04T01:04:47.028Z,2.10
2018-12-04T01:07:14.620Z,1.33
2018-12-04T01:09:42.588Z,1.70
2018-12-04T01:12:10.177Z,1.30
2018-12-04T01:14:37.830Z,1.70
2018-12-04T01:17:05.461Z,2.17
2018-12-04T01:19:33.194Z,1.57
2018-12-04T01:22:01.190Z,1.47
2018-12-04T01:24:45.916Z,1.30
2018-12-04T01:27:13.549Z,1.33
2018-12-04T01:29:41.265Z,2.10
2018-12-04T01:32:08.893Z,1.30
2018-12-04T01:34:36.524Z,1.40
2018-12-04T01:37:04.151Z,1.40
2018-12-04T01:39:31.803Z,1.50
2018-12-04T01:41:59.419Z,1.73
2018-12-04T01:44:27.188Z,1.10
2018-12-04T01:46:54.856Z,1.67
2018-12-04T01:49:22.528Z,1.73
2018-12-04T01:51:50.462Z,1.93
2018-12-04T01:54:18.262Z,0.97
2018-12-04T01:56:45.891Z,1.63
2018-12-04T01:59:13.549Z,1.23
2018-12-04T02:01:41.292Z,1.60
2018-12-04T02:04:08.865Z,1.33
2018-12-04T02:06:36.500Z,1.50
2018-12-04T02:09:05.805Z,2.20
2018-12-04T02:11:33.705Z,1.30
2018-12-04T02:14:01.303Z,1.10
2018-12-04T02:16:28.873Z,1.97
2018-12-04T02:18:56.447Z,1.30
2018-12-04T02:21:24.130Z,1.40
2018-12-04T02:23:51.767Z,1.30
2018-12-04T02:26:19.318Z,1.60
2018-12-04T02:28:46.981Z,1.00
2018-12-04T02:31:14.713Z,1.90
2018-12-04T02:33:42.369Z,1.30
2018-12-04T02:36:10.019Z,1.27
2018-12-04T02:38:37.694Z,2.13
2018-12-04T02:41:05.307Z,1.63
2018-12-04T02:43:32.938Z,1.20
2018-12-04T02:46:01.032Z,1.40
2018-12-04T02:48:28.579Z,1.63
2018-12-04T02:50:56.170Z,1.63
2018-12-04T02:53:23.813Z,2.00
2018-12-04T02:55:51.520Z,1.50
2018-12-04T02:58:19.237Z,1.60
2018-12-04T03:00:46.810Z,1.40
2018-12-04T03:03:14.405Z,1.67
2018-12-04T03:05:42.105Z,2.00
2018-12-04T03:08:09.745Z,1.90
2018-12-04T03:10:37.311Z,1.50
2018-12-04T03:13:05.055Z,2.00
2018-12-04T03:15:32.629Z,1.70
2018-12-04T03:18:00.196Z,1.33
2018-12-04T03:20:27.804Z,1.10
2018-12-04T03:22:55.414Z,1.40
2018-12-04T03:25:23.041Z,1.97
2018-12-04T03:27:50.699Z,1.70
2018-12-04T03:30:18.323Z,1.83
2018-12-04T03:32:45.952Z,1.27
2018-12-04T03:35:13.541Z,1.90
2018-12-04T03:37:41.153Z,2.33
2018-12-04T03:40:09.331Z,2.30
2018-12-04T03:42:36.963Z,2.17
2018-12-04T03:45:05.213Z,1.57
2018-12-04T03:47:32.885Z,1.73
2018-12-04T03:50:00.691Z,2.03
2018-12-04T03:52:29.232Z,1.47
2018-12-04T03:54:57.104Z,1.87
2018-12-04T03:57:24.801Z,2.07
2018-12-04T03:59:52.794Z,1.53
2018-12-04T04:02:20.393Z,1.30
2018-12-04T04:04:48.167Z,1.40
2018-12-04T04:07:15.830Z,2.20
2018-12-04T04:09:43.510Z,1.77
2018-12-04T04:12:11.101Z,1.20
2018-12-04T04:14:39.041Z,1.80
2018-12-04T04:17:06.833Z,1.67
2018-12-04T04:19:34.479Z,1.57
2018-12-04T04:22:02.076Z,2.17
2018-12-04T04:24:29.845Z,1.60
2018-12-04T04:26:57.570Z,1.90
2018-12-04T04:29:25.348Z,1.50
2018-12-04T04:31:53.017Z,2.07
2018-12-04T04:34:20.676Z,1.80
2018-12-04T04:36:48.446Z,1.50
2018-12-04T04:39:16.079Z,1.40
2018-12-04T04:41:43.734Z,2.13
2018-12-04T04:44:11.320Z,1.60
2018-12-04T04:46:38.864Z,1.70
2018-12-04T04:49:06.461Z,1.23
2018-12-04T04:51:34.046Z,1.87
2018-12-04T04:54:01.658Z,1.77
2018-12-04T04:56:29.444Z,1.90
2018-12-04T04:58:57.139Z,1.83
2018-12-04T05:01:25.116Z,1.43
2018-12-04T05:03:52.718Z,1.77
2018-12-04T05:06:20.609Z,1.77
2018-12-04T05:08:48.323Z,1.60
2018-12-04T05:11:15.922Z,1.93
2018-12-04T05:13:43.503Z,1.80
2018-12-04T05:16:11.028Z,1.70
2018-12-04T05:18:38.562Z,1.40
2018-12-04T05:21:06.151Z,1.50
2018-12-04T05:23:33.783Z,1.67
2018-12-04T05:26:01.438Z,2.03
2018-12-04T05:28:29.364Z,1.37
2018-12-04T05:30:57.893Z,1.90
2018-12-04T05:33:26.043Z,1.40
2018-12-04T05:35:54.036Z,1.03
2018-12-04T05:38:22.107Z,1.50
2018-12-04T05:40:51.355Z,1.50
2018-12-04T05:43:19.341Z,2.60
2018-12-04T05:45:47.461Z,2.50
2018-12-04T05:48:15.769Z,2.40
2018-12-04T05:50:43.949Z,2.40
2018-12-04T05:53:23.610Z,85.10
2018-12-04T05:55:51.629Z,79.53
2018-12-04T05:58:19.856Z,26.17
2018-12-04T06:00:47.810Z,15.10
2018-12-04T06:03:16.175Z,4.00
2018-12-04T06:05:44.001Z,2.60
2018-12-04T06:08:11.706Z,2.97
2018-12-04T06:10:39.506Z,3.00
2018-12-04T06:13:07.810Z,3.07
2018-12-04T06:15:35.811Z,2.10
2018-12-04T06:18:04.084Z,2.77
2018-12-04T06:20:46.595Z,2.67
2018-12-04T06:23:14.458Z,1.93
2018-12-04T06:25:42.631Z,2.30
2018-12-04T06:28:10.634Z,2.30
2018-12-04T06:30:38.523Z,1.60
2018-12-04T06:33:07.231Z,3.23
2018-12-04T06:35:35.154Z,1.80
2018-12-04T06:38:04.060Z,2.73
2018-12-04T06:40:31.856Z,2.40
2018-12-04T06:42:59.472Z,9.77
2018-12-04T06:45:27.371Z,12.27
2018-12-04T06:47:55.129Z,4.80
2018-12-04T06:50:23.699Z,3.13
2018-12-04T06:52:51.525Z,2.70
2018-12-04T06:55:19.902Z,1.93
2018-12-04T06:57:57.070Z,1.90
2018-12-04T07:00:26.462Z,2.67
2018-12-04T07:02:55.920Z,3.00
2018-12-04T07:05:24.289Z,2.40
2018-12-04T07:07:52.569Z,2.10
2018-12-04T07:10:21.043Z,2.60
2018-12-04T07:12:50.098Z,2.50
2018-12-04T07:15:18.315Z,2.50
2018-12-04T07:20:44.292Z,1.83
2018-12-04T07:23:12.902Z,2.73
2018-12-04T07:25:41.083Z,2.17
2018-12-04T07:28:09.125Z,2.20
2018-12-04T07:30:37.370Z,2.00
2018-12-04T07:33:05.240Z,1.43
2018-12-04T07:35:33.324Z,2.10
2018-12-04T07:38:01.350Z,2.17
2018-12-04T07:40:29.355Z,2.10
2018-12-04T07:42:57.516Z,1.30
2018-12-04T07:45:25.516Z,2.40
2018-12-04T07:47:56.574Z,13.47
2018-12-04T07:50:25.772Z,4.50
2018-12-04T07:52:55.534Z,1.70
2018-12-04T07:55:23.645Z,2.00
2018-12-04T07:57:51.870Z,2.33
2018-12-04T08:00:21.150Z,1.80
2018-12-04T08:02:49.271Z,1.73
2018-12-04T08:05:17.309Z,1.63
2018-12-04T08:07:45.532Z,1.60
2018-12-04T08:10:13.956Z,2.07
2018-12-04T08:12:42.305Z,2.10
2018-12-04T08:15:10.616Z,1.50
2018-12-04T08:17:38.836Z,2.00
2018-12-04T08:20:07.682Z,1.60
2018-12-04T08:22:36.042Z,2.33
2018-12-04T08:25:04.236Z,1.50
2018-12-04T08:27:34.210Z,2.17
2018-12-04T08:30:02.724Z,2.30
2018-12-04T08:32:31.243Z,2.03
2018-12-04T08:34:59.620Z,1.87
2018-12-04T08:37:27.662Z,2.30
2018-12-04T08:39:56.350Z,1.53
2018-12-04T08:42:24.019Z,2.17
2018-12-04T08:44:51.670Z,1.50
2018-12-04T08:47:19.324Z,1.70
2018-12-04T08:49:47.080Z,2.00
2018-12-04T08:52:14.791Z,2.70
2018-12-04T08:54:42.347Z,1.40
2018-12-04T08:57:10.039Z,1.80
2018-12-04T08:59:37.721Z,11.50
2018-12-04T09:02:06.431Z,14.67
2018-12-04T09:04:34.218Z,5.60
2018-12-04T09:07:01.873Z,2.33
2018-12-04T09:09:29.386Z,2.70
2018-12-04T09:11:57.065Z,2.17
2018-12-04T09:14:24.816Z,2.20
2018-12-04T09:16:52.416Z,16.30
2018-12-04T09:19:20.775Z,6.70
2018-12-04T09:21:48.862Z,3.00
2018-12-04T09:24:17.057Z,2.97
2018-12-04T09:26:45.015Z,3.30
2018-12-04T09:29:14.017Z,1.80
2018-12-04T09:31:41.741Z,3.43
2018-12-04T09:34:09.413Z,2.90
2018-12-04T09:36:37.072Z,2.47
2018-12-04T09:39:06.726Z,1.90
2018-12-04T09:41:36.326Z,2.83
2018-12-04T09:44:04.012Z,2.90
2018-12-04T09:46:31.749Z,2.50
2018-12-04T09:49:00.456Z,4.07
2018-12-04T09:51:28.127Z,2.67
2018-12-04T09:53:56.265Z,2.10
2018-12-04T09:56:24.193Z,3.90
2018-12-04T09:58:53.159Z,2.70
2018-12-04T10:01:21.201Z,2.77
2018-12-04T10:03:49.302Z,2.40
2018-12-04T10:06:17.468Z,2.50
2018-12-04T10:08:45.630Z,2.77
2018-12-04T10:11:13.682Z,2.63
2018-12-04T10:13:41.482Z,3.30
2018-12-04T10:16:13.304Z,3.27
2018-12-04T10:18:47.472Z,2.73
2018-12-04T10:21:11.634Z,2.90
2018-12-04T10:23:39.709Z,2.70
2018-12-04T10:26:10.830Z,2.53
2018-12-04T10:28:38.994Z,3.30
2018-12-04T10:31:09.154Z,2.63
2018-12-04T10:33:37.365Z,2.40
2018-12-04T10:36:05.798Z,2.27
2018-12-04T10:38:34.611Z,3.10
2018-12-04T10:41:02.631Z,2.50
2018-12-04T10:43:30.546Z,2.37
2018-12-04T10:45:58.548Z,2.30
2018-12-04T10:48:26.681Z,2.90
2018-12-04T10:50:54.744Z,2.90
2018-12-04T10:53:22.841Z,2.50
2018-12-04T10:55:50.841Z,2.70
2018-12-04T10:58:19.143Z,3.00
2018-12-04T11:00:53.369Z,2.13
2018-12-04T11:03:26.184Z,2.00
2018-12-04T11:05:54.887Z,3.07
2018-12-04T11:08:22.718Z,2.30
2018-12-04T11:10:51.480Z,1.83
2018-12-04T11:13:19.298Z,2.13
2018-12-04T11:15:47.189Z,1.93
2018-12-04T11:18:14.792Z,2.33
2018-12-04T11:20:42.705Z,2.17
2018-12-04T11:23:11.471Z,2.67
2018-12-04T11:25:39.693Z,2.93
2018-12-04T11:28:07.988Z,2.20
2018-12-04T11:30:37.314Z,1.90
2018-12-04T11:33:05.235Z,2.40
2018-12-04T11:35:36.815Z,2.03
2018-12-04T11:38:05.030Z,2.03
2018-12-04T11:40:33.403Z,2.50
2018-12-04T11:43:01.158Z,2.00
2018-12-04T11:45:31.150Z,2.23
2018-12-04T11:47:59.298Z,2.70
2018-12-04T11:50:27.427Z,1.97
2018-12-04T11:52:55.235Z,1.80
2018-12-04T11:55:22.985Z,1.50
2018-12-04T11:57:51.649Z,1.70
2018-12-04T12:00:27.963Z,2.27
2018-12-04T12:02:55.721Z,1.63
2018-12-04T12:05:23.486Z,2.33
2018-12-04T12:07:52.361Z,2.60
2018-12-04T12:10:20.033Z,1.87
2018-12-04T12:12:48.763Z,1.83
2018-12-04T12:15:19.731Z,33.50
2018-12-04T12:17:48.518Z,12.47
2018-12-04T12:20:17.957Z,1.73
2018-12-04T12:22:46.040Z,1.93
2018-12-04T12:25:14.100Z,1.50
2018-12-04T12:27:42.450Z,1.90
2018-12-04T12:30:10.498Z,1.93
2018-12-04T12:32:38.280Z,1.43
2018-12-04T12:35:06.983Z,1.87
2018-12-04T12:37:34.636Z,1.63
2018-12-04T12:40:03.481Z,2.20
2018-12-04T12:42:33.979Z,1.60
2018-12-04T12:45:01.606Z,1.33
2018-12-04T12:47:30.757Z,1.60
2018-12-04T12:49:58.460Z,1.90
2018-12-04T12:52:27.161Z,1.53
2018-12-04T12:54:55.313Z,1.30
2018-12-04T13:00:19.246Z,1.80
2018-12-04T13:02:47.103Z,1.80
2018-12-04T13:05:14.912Z,1.20
2018-12-04T13:07:42.576Z,2.03
2018-12-04T13:10:12.275Z,1.60
2018-12-04T13:12:40.148Z,1.30
2018-12-04T13:15:09.628Z,1.40
2018-12-04T13:17:39.747Z,1.33
2018-12-04T13:20:09.018Z,1.60
2018-12-04T13:22:36.756Z,1.70
2018-12-04T13:25:05.721Z,1.50
2018-12-04T13:27:33.913Z,7.23
2018-12-04T13:30:02.152Z,8.27
2018-12-04T13:32:30.489Z,4.97
2018-12-04T13:34:58.007Z,2.70
2018-12-04T13:37:25.634Z,1.60
2018-12-04T13:39:53.919Z,2.17
2018-12-04T13:42:21.749Z,1.63
2018-12-04T13:44:50.739Z,1.83
2018-12-04T13:47:18.769Z,1.67
2018-12-04T13:49:46.704Z,2.23
2018-12-04T13:52:14.783Z,2.07
2018-12-04T13:54:42.369Z,2.00
2018-12-04T13:57:10.017Z,1.63
2018-12-04T13:59:38.772Z,1.30
2018-12-04T14:02:07.660Z,1.73
2018-12-04T14:04:36.549Z,1.57
2018-12-04T14:07:04.685Z,1.73
2018-12-04T14:09:32.301Z,1.70
2018-12-04T14:11:59.958Z,2.27
2018-12-04T14:14:28.290Z,2.20
2018-12-04T14:16:55.891Z,2.53
2018-12-04T14:19:24.213Z,1.63
2018-12-04T14:21:52.178Z,2.13
2018-12-04T14:24:19.798Z,2.37
2018-12-04T14:26:48.105Z,2.00
2018-12-04T14:29:15.792Z,2.00
2018-12-04T14:31:43.753Z,1.73
2018-12-04T14:34:13.189Z,2.20
2018-12-04T14:36:41.931Z,2.23
2018-12-04T14:39:09.918Z,1.73
2018-12-04T14:41:38.628Z,2.20
2018-12-04T14:44:07.041Z,1.70
2018-12-04T14:46:34.863Z,3.10
2018-12-04T14:49:03.329Z,2.10
2018-12-04T14:51:31.010Z,2.10
2018-12-04T14:53:58.684Z,1.80
2018-12-04T14:56:26.620Z,1.77
2018-12-04T14:58:54.203Z,2.10
2018-12-04T15:01:21.965Z,2.17
2018-12-04T15:03:49.809Z,1.60
2018-12-04T15:06:17.492Z,2.33
2018-12-04T15:08:47.186Z,2.20
2018-12-04T15:11:14.939Z,2.10
2018-12-04T15:13:42.607Z,2.83
2018-12-04T15:16:11.214Z,2.40
2018-12-04T15:18:40.550Z,2.50
2018-12-04T15:21:09.470Z,2.70
2018-12-04T15:23:40.980Z,2.90
2018-12-04T15:26:08.999Z,2.53
2018-12-04T15:28:37.196Z,2.80
2018-12-04T15:31:05.101Z,2.40
2018-12-04T15:33:32.818Z,2.50
2018-12-04T15:36:01.309Z,2.90
2018-12-04T15:38:29.263Z,2.37
2018-12-04T15:40:56.893Z,2.40
2018-12-04T15:43:25.488Z,3.50
2018-12-04T15:45:53.684Z,3.10
2018-12-04T15:48:21.917Z,2.80
2018-12-04T15:50:50.753Z,3.63
2018-12-04T15:53:19.915Z,3.60
2018-12-04T15:55:48.457Z,2.93
2018-12-04T15:58:16.048Z,5.17
2018-12-04T16:00:43.839Z,3.13
2018-12-04T16:03:13.033Z,3.43
2018-12-04T16:05:41.822Z,3.83
2018-12-04T16:08:09.859Z,3.87
2018-12-04T16:10:37.857Z,3.47
2018-12-04T16:13:05.436Z,3.70
2018-12-04T16:15:33.047Z,3.87
2018-12-04T16:18:00.893Z,3.50
2018-12-04T16:20:28.618Z,3.50
2018-12-04T16:22:56.724Z,4.53
2018-12-04T16:25:24.270Z,4.07
2018-12-04T16:27:51.947Z,3.90
2018-12-04T16:30:21.328Z,4.40
2018-12-04T16:32:48.951Z,3.67
2018-12-04T16:35:16.944Z,2.90
2018-12-04T16:37:45.156Z,4.10
2018-12-04T16:40:12.937Z,3.43
2018-12-04T16:42:40.518Z,3.60
2018-12-04T16:45:09.212Z,4.47
2018-12-04T16:47:36.781Z,3.97
2018-12-04T16:50:05.141Z,7.23
2018-12-04T16:52:32.956Z,7.87
2018-12-04T16:55:01.634Z,6.70
2018-12-04T16:57:30.004Z,6.73
2018-12-04T16:59:57.899Z,6.53
2018-12-04T17:02:25.794Z,8.03
2018-12-04T17:04:53.573Z,7.40
2018-12-04T17:07:21.186Z,7.83
2018-12-04T17:09:49.258Z,8.63
2018-12-04T17:12:16.760Z,9.73
2018-12-04T17:14:44.415Z,9.50
2018-12-04T17:17:12.195Z,9.00
2018-12-04T17:19:41.566Z,9.77
2018-12-04T17:22:09.807Z,8.73
2018-12-04T17:24:37.965Z,8.87
2018-12-04T17:27:06.085Z,8.23
2018-12-04T17:29:34.785Z,7.80
2018-12-04T17:32:03.207Z,9.30
2018-12-04T17:34:31.898Z,8.83
2018-12-04T17:37:00.199Z,7.50
2018-12-04T17:39:28.154Z,7.37
2018-12-04T17:41:55.915Z,7.50
2018-12-04T17:44:23.967Z,8.20
2018-12-04T17:46:51.826Z,6.80
2018-12-04T17:49:19.635Z,6.73
2018-12-04T17:51:47.219Z,7.80
2018-12-04T17:54:15.121Z,7.67
2018-12-04T17:56:42.821Z,6.67
2018-12-04T17:59:10.561Z,6.30
2018-12-04T18:01:38.158Z,6.53
2018-12-04T18:04:06.087Z,7.03
2018-12-04T18:06:33.723Z,8.00
2018-12-04T18:09:01.372Z,6.87
2018-12-04T18:11:29.272Z,6.57
2018-12-04T18:13:56.936Z,6.67
2018-12-04T18:16:24.573Z,6.60
2018-12-04T18:18:53.190Z,7.00
2018-12-04T18:21:21.018Z,7.40
2018-12-04T18:23:49.070Z,5.97
2018-12-04T18:26:16.803Z,6.43
2018-12-04T18:28:44.693Z,6.07
2018-12-04T18:31:12.591Z,6.43
2018-12-04T18:33:40.360Z,5.40
2018-12-04T18:39:15.934Z,5.87
2018-12-04T18:41:43.636Z,6.63
2018-12-04T18:44:13.244Z,6.40
2018-12-04T18:46:42.089Z,6.60
2018-12-04T18:49:10.130Z,7.90
2018-12-04T18:51:38.049Z,13.90
2018-12-04T18:54:06.895Z,10.43
2018-12-04T18:56:34.615Z,8.30
2018-12-04T18:59:02.272Z,8.00
2018-12-04T19:01:29.937Z,7.23
2018-12-04T19:03:57.687Z,8.60
2018-12-04T19:06:25.728Z,9.17
2018-12-04T19:08:53.689Z,9.50
2018-12-04T19:11:21.390Z,7.97
2018-12-04T19:13:49.026Z,7.60
2018-12-04T19:16:17.851Z,7.43
2018-12-04T19:18:46.811Z,8.60
2018-12-04T19:21:14.772Z,7.50
2018-12-04T19:23:42.984Z,8.60
2018-12-04T19:26:11.020Z,6.70
2018-12-04T19:28:38.896Z,7.13
2018-12-04T19:31:08.097Z,7.20
2018-12-04T19:33:35.995Z,8.20
2018-12-04T19:36:04.226Z,7.50
2018-12-04T19:38:33.119Z,7.33
2018-12-04T19:41:00.645Z,7.30
2018-12-04T19:43:28.464Z,7.83
2018-12-04T19:45:57.212Z,8.30
2018-12-04T19:48:25.838Z,7.40
2018-12-04T19:50:53.455Z,7.30
2018-12-04T19:53:23.466Z,8.30
2018-12-04T19:55:51.303Z,8.70
2018-12-04T19:58:21.666Z,8.57
2018-12-04T20:00:49.708Z,8.83
2018-12-04T20:03:17.523Z,10.53
2018-12-04T20:05:45.254Z,12.03
2018-12-04T20:08:12.866Z,12.60
2018-12-04T20:10:40.414Z,12.63
2018-12-04T20:13:08.195Z,12.37
2018-12-04T20:15:36.094Z,10.50
2018-12-04T20:18:03.785Z,9.67
2018-12-04T20:20:31.579Z,9.20
2018-12-04T20:22:59.194Z,8.87
2018-12-04T20:25:27.209Z,9.20
2018-12-04T20:27:54.875Z,8.20
2018-12-04T20:30:22.532Z,8.53
2018-12-04T20:32:50.546Z,8.50
2018-12-04T20:35:18.374Z,7.83
2018-12-04T20:37:46.411Z,7.53
2018-12-04T20:40:13.956Z,7.97
2018-12-04T20:42:41.724Z,7.37
2018-12-04T20:45:09.521Z,7.60
2018-12-04T20:47:37.215Z,7.80
2018-12-04T20:50:06.252Z,7.70
2018-12-04T20:52:34.151Z,7.40
2018-12-04T20:55:08.514Z,6.87
2018-12-04T20:57:31.572Z,6.23
2018-12-04T20:59:59.338Z,5.63
2018-12-04T21:02:26.992Z,5.07
2018-12-04T21:04:54.554Z,4.77
2018-12-04T21:07:22.342Z,5.17
2018-12-04T21:09:49.981Z,5.00
2018-12-04T21:12:17.748Z,4.47
2018-12-04T21:14:45.595Z,6.40
2018-12-04T21:17:13.440Z,11.27
2018-12-04T21:19:42.202Z,8.43
2018-12-04T21:22:10.124Z,5.90
2018-12-04T21:24:38.057Z,6.47
2018-12-04T21:27:11.927Z,5.47
2018-12-04T21:29:45.823Z,6.40
2018-12-04T21:32:19.284Z,6.13
2018-12-04T21:34:52.640Z,7.83
2018-12-04T21:37:26.033Z,7.00
2018-12-04T21:39:59.857Z,7.33
2018-12-04T21:42:33.219Z,7.20
2018-12-04T21:45:06.751Z,6.60
2018-12-04T21:47:40.265Z,8.00
2018-12-04T21:50:08.225Z,6.40
2018-12-04T21:52:36.143Z,6.27
2018-12-04T21:55:04.160Z,6.67
2018-12-04T21:57:32.232Z,6.00
2018-12-04T21:59:59.995Z,6.50
2018-12-04T22:02:28.076Z,6.07
2018-12-04T22:04:55.793Z,5.37
2018-12-04T22:07:23.427Z,6.17
2018-12-04T22:09:51.492Z,6.00
2018-12-04T22:12:19.320Z,5.40
2018-12-04T22:14:49.765Z,6.60
2018-12-04T22:17:17.580Z,5.60
2018-12-04T22:19:45.246Z,5.80
2018-12-04T22:22:12.814Z,6.13
2018-12-04T22:24:40.444Z,5.63
2018-12-04T22:27:08.476Z,5.63
2018-12-04T22:29:36.156Z,6.30
2018-12-04T22:32:04.536Z,5.90
2018-12-04T22:34:32.162Z,6.43
2018-12-04T22:36:59.889Z,6.23
2018-12-04T22:39:27.610Z,5.63
2018-12-04T22:41:55.323Z,6.47
2018-12-04T22:44:22.955Z,6.40
2018-12-04T22:46:50.557Z,5.80
2018-12-04T22:49:18.556Z,5.27
2018-12-04T22:51:46.381Z,5.97
2018-12-04T22:54:14.019Z,4.80
2018-12-04T22:56:41.726Z,4.90
2018-12-04T23:02:05.712Z,4.90
2018-12-04T23:04:33.289Z,6.27
2018-12-04T23:07:01.471Z,5.03
2018-12-04T23:09:29.103Z,5.60
2018-12-04T23:11:57.083Z,5.27
2018-12-04T23:14:24.862Z,5.13
2018-12-04T23:16:52.574Z,5.10
2018-12-04T23:19:21.311Z,5.40
2018-12-04T23:21:48.852Z,4.67
2018-12-04T23:24:16.652Z,5.80
2018-12-04T23:26:44.267Z,4.57
2018-12-04T23:29:12.377Z,5.80
2018-12-04T23:31:41.042Z,5.60
2018-12-04T23:34:08.717Z,7.23
2018-12-04T23:36:36.784Z,6.70
2018-12-04T23:39:07.087Z,5.47
2018-12-04T23:41:34.855Z,5.63
2018-12-04T23:44:02.824Z,5.67
2018-12-04T23:46:30.406Z,5.40
2018-12-04T23:48:57.986Z,5.50
2018-12-04T23:51:25.574Z,6.70
2018-12-04T23:53:53.151Z,5.47
2018-12-04T23:56:20.695Z,5.33
2018-12-04T23:58:48.222Z,5.20
